Observations for Trim Market St
| Time | AQI | Temp °C | Hum % | Pres Pa | CO μg/m³ | H₂S μg/m³ | NO μg/m³ | NO₂ μg/m³ | O₃ μg/m³ | SO₂ μg/m³ | PM1 μg/m³ | PM2.5 μg/m³ | PM10 μg/m³ |
|---|---|---|---|---|---|---|---|---|---|---|---|---|---|
| Monday 13 July 2026 | |||||||||||||
| 05:27 | 1 | 17.1 | 78 | 14,236 | 0.08 | 0 | 0 | 2.29 | 17.44 | 0 | 1.43 | 2.68 | 5.79 |
| 05:26 | 1 | 17.1 | 78 | 14,407 | 0.08 | 0 | 0.98 | 3.59 | 18.38 | 0 | 1.43 | 2.68 | 5.79 |
| 05:25 | 1 | 17.1 | 78 | 14,597 | 0.08 | 0 | 0 | 3.79 | 18.86 | 0 | 1.43 | 3.16 | 6.37 |
| 05:24 | 1 | 17.1 | 78 | 14,878 | 0.08 | 0 | 0 | 3.19 | 17.74 | 0 | 1.43 | 3.16 | 5.79 |
| 05:23 | 1 | 17.1 | 78 | 15,052 | 0.09 | 0 | 0 | 3.79 | 17.79 | 0 | 1.43 | 3.16 | 7.53 |
| 05:22 | 1 | 17.1 | 78 | 15,209 | 0.09 | 0 | 0 | 2.29 | 20.65 | 0 | 1.43 | 3.16 | 8.69 |
| 05:21 | 1 | 17.1 | 78 | 15,417 | 0.08 | 0 | 0 | 2.59 | 17.36 | 0 | 2.14 | 4.11 | 6.95 |
| 05:20 | 1 | 17.1 | 78 | 15,601 | 0.08 | 0 | 0 | 3.8 | 22.41 | 0 | 1.43 | 3.16 | 6.37 |
| 05:19 | 1 | 17.1 | 78 | 15,700 | 0.08 | 0 | 0 | 3.3 | 17.19 | 0 | 2.14 | 3.16 | 9.27 |
| 05:18 | 1 | 17.1 | 78 | 15,944 | 0.09 | 0 | 0 | 3.3 | 15.26 | 0 | 1.43 | 3.16 | 5.79 |
| 05:17 | 1 | 17.1 | 78 | 16,008 | 0.09 | 0 | 0 | 2.71 | 26.24 | 0 | 2.14 | 3.64 | 7.53 |
| 05:13 | 1 | 17.1 | 78 | 16,107 | 0.09 | 0 | 0 | 3.41 | 19.32 | 0 | 1.43 | 2.69 | 8.11 |
| 05:12 | 1 | 17.2 | 78 | 16,434 | 0.07 | 0 | 0 | 3.39 | 16.45 | 0 | 1.43 | 2.69 | 5.21 |
| 05:11 | 1 | 17.2 | 78 | 16,465 | 0.07 | 0 | 0 | 2.29 | 19.1 | 0 | 1.43 | 3.17 | 6.95 |
| 05:10 | 1 | 17.2 | 78 | 16,545 | 0.07 | 0 | 0 | 2.79 | 18.75 | 0 | 1.43 | 2.69 | 5.21 |
| 05:09 | 1 | 17.2 | 78 | 16,661 | 0.07 | 0 | 0 | 1.79 | 20.94 | 0 | 2.85 | 4.12 | 7.53 |
| 05:08 | 1 | 17.2 | 78 | 16,831 | 0.08 | 0 | 0 | 5 | 19.79 | 0 | 1.43 | 3.17 | 6.95 |
| 05:07 | 1 | 17.2 | 78 | 17,158 | 0.07 | 0 | 0 | 3.2 | 20.91 | 0 | 1.43 | 4.12 | 7.53 |
| 05:06 | 1 | 17.2 | 78 | 17,253 | 0.08 | 0 | 0 | 3.6 | 20.38 | 0 | 2.14 | 4.12 | 8.69 |
| 05:05 | 1 | 17.2 | 78 | 17,429 | 0.07 | 0 | 1.11 | 3.3 | 19.17 | 0 | 1.43 | 2.22 | 4.62 |